Terminal Aerodrome Forecast
Issued by NWS St Louis, MO

Home | Current Version | Previous Version | Text Only | Print | Product List | Glossary On
Versions: 1 2 3 4 5 6 7 8 9 10 11 12 13 14 15 16 17 18 19 20 21 22 23 24 25 26 27
000
FTUS43 KLSX 172337
TAFSTL
TAF
KSTL 172337Z 1800/1906 21007KT P6SM OVC025
      TEMPO 1800/1801 OVC035
     FM180200 21005KT 6SM -DZ BR OVC015
     FM181200 24005KT P6SM OVC015
     FM181800 24009KT P6SM BKN025
     FM182300 22007KT P6SM SCT030=

USA.gov is the U.S. government's official web portal to all federal, state and local government web resources and services.